createdAt,value
2018-08-28T00:00:43.503Z,5.50
2018-08-28T00:01:42.781Z,5.60
2018-08-28T00:02:42.789Z,5.50
2018-08-28T00:03:43.180Z,5.60
2018-08-28T00:04:43.282Z,5.50
2018-08-28T00:05:43.527Z,5.60
2018-08-28T00:06:43.206Z,5.60
2018-08-28T00:07:42.742Z,5.90
2018-08-28T00:08:43.016Z,5.30
2018-08-28T00:09:42.972Z,5.30
2018-08-28T00:10:42.650Z,5.40
2018-08-28T00:11:42.698Z,5.80
2018-08-28T00:12:42.787Z,5.40
2018-08-28T00:13:42.932Z,5.70
2018-08-28T00:14:42.593Z,6.00
2018-08-28T00:15:42.582Z,5.20
2018-08-28T00:16:43.203Z,5.30
2018-08-28T00:17:42.551Z,5.50
2018-08-28T00:18:42.861Z,5.60
2018-08-28T00:19:42.726Z,5.30
2018-08-28T00:20:42.569Z,5.60
2018-08-28T00:21:42.680Z,5.30
2018-08-28T00:22:43.186Z,5.10
2018-08-28T00:23:42.762Z,5.10
2018-08-28T00:24:42.803Z,5.30
2018-08-28T00:25:42.825Z,5.40
2018-08-28T00:26:42.516Z,5.20
2018-08-28T00:27:42.875Z,5.40
2018-08-28T00:28:42.782Z,5.40
2018-08-28T00:29:42.713Z,5.70
2018-08-28T00:30:42.434Z,4.90
2018-08-28T00:31:42.527Z,5.80
2018-08-28T00:32:42.795Z,5.20
2018-08-28T00:33:42.880Z,5.10
2018-08-28T00:34:42.813Z,5.40
2018-08-28T00:35:42.835Z,4.90
2018-08-28T00:36:42.682Z,5.30
2018-08-28T00:37:42.624Z,5.30
2018-08-28T00:38:42.486Z,5.00
2018-08-28T00:39:42.867Z,5.40
2018-08-28T00:40:42.335Z,5.50
2018-08-28T00:41:42.627Z,5.70
2018-08-28T00:42:42.512Z,5.00
2018-08-28T00:43:42.368Z,5.50
2018-08-28T00:44:42.563Z,4.70
2018-08-28T00:45:42.799Z,4.70
2018-08-28T00:46:42.243Z,5.30
2018-08-28T00:47:42.817Z,4.80
2018-08-28T00:48:42.471Z,5.40
2018-08-28T00:49:42.325Z,5.40
2018-08-28T00:50:42.310Z,5.00
2018-08-28T00:51:42.251Z,5.10
2018-08-28T00:52:42.291Z,5.30
2018-08-28T00:53:42.533Z,5.10
2018-08-28T00:54:42.207Z,5.00
2018-08-28T00:55:42.285Z,5.30
2018-08-28T00:56:42.235Z,5.50
2018-08-28T00:57:42.279Z,5.00
2018-08-28T00:58:42.191Z,4.70
2018-08-28T00:59:42.269Z,5.40
2018-08-28T01:00:42.186Z,5.30
2018-08-28T01:01:42.117Z,5.10
2018-08-28T01:02:42.130Z,5.20
2018-08-28T01:03:42.041Z,5.20
2018-08-28T01:04:42.151Z,5.50
2018-08-28T01:05:42.070Z,5.30
2018-08-28T01:06:42.049Z,5.10
2018-08-28T01:07:42.021Z,5.60
2018-08-28T01:08:42.042Z,5.10
2018-08-28T01:09:42.008Z,5.10
2018-08-28T01:10:41.980Z,4.70
2018-08-28T01:11:41.981Z,5.00
2018-08-28T01:12:41.948Z,5.40
2018-08-28T01:13:42.054Z,5.40
2018-08-28T01:14:41.948Z,5.60
2018-08-28T01:15:41.935Z,5.10
2018-08-28T01:16:41.891Z,5.00
2018-08-28T01:17:41.912Z,4.60
2018-08-28T01:18:41.935Z,4.80
2018-08-28T01:19:42.307Z,5.50
2018-08-28T01:20:41.877Z,4.90
2018-08-28T01:21:41.844Z,5.20
2018-08-28T01:22:41.835Z,4.70
2018-08-28T01:23:41.849Z,4.80
2018-08-28T01:24:41.875Z,5.10
2018-08-28T01:25:41.813Z,5.20
2018-08-28T01:26:42.838Z,5.20
2018-08-28T01:27:41.817Z,4.60
2018-08-28T01:28:41.777Z,4.50
2018-08-28T01:29:41.847Z,4.50
2018-08-28T01:30:41.761Z,5.00
2018-08-28T01:31:41.735Z,5.20
2018-08-28T01:32:41.749Z,5.00
2018-08-28T01:33:41.707Z,4.90
2018-08-28T01:34:41.757Z,4.80
2018-08-28T01:35:41.708Z,4.70
2018-08-28T01:36:41.674Z,5.00
2018-08-28T01:37:41.701Z,5.20
2018-08-28T01:38:41.663Z,4.90
2018-08-28T01:39:41.676Z,5.30
2018-08-28T01:40:41.696Z,5.00
2018-08-28T01:41:41.656Z,4.80
2018-08-28T01:42:41.621Z,4.70
2018-08-28T01:43:41.740Z,4.90
2018-08-28T01:44:41.659Z,4.80
2018-08-28T01:45:41.731Z,4.90
2018-08-28T01:46:41.716Z,4.90
2018-08-28T01:47:41.678Z,5.00
2018-08-28T01:48:41.596Z,4.70
2018-08-28T01:49:41.632Z,4.90
2018-08-28T01:50:41.629Z,5.00
2018-08-28T01:51:41.577Z,4.40
2018-08-28T01:52:41.508Z,4.60
2018-08-28T01:53:41.577Z,4.80
2018-08-28T01:54:41.493Z,4.50
2018-08-28T01:55:41.528Z,4.90
2018-08-28T01:56:41.488Z,4.80
2018-08-28T01:57:41.452Z,4.60
2018-08-28T01:58:41.445Z,4.80
2018-08-28T01:59:41.415Z,4.30
2018-08-28T02:00:41.481Z,5.10
2018-08-28T02:01:41.492Z,5.20
2018-08-28T02:02:41.383Z,5.10
2018-08-28T02:03:41.362Z,4.90
2018-08-28T02:04:42.368Z,5.00
2018-08-28T02:05:41.416Z,5.10
2018-08-28T02:06:41.334Z,5.10
2018-08-28T02:07:41.357Z,4.80
2018-08-28T02:08:41.349Z,5.10
2018-08-28T02:09:41.341Z,5.30
2018-08-28T02:10:41.365Z,4.90
2018-08-28T02:11:41.321Z,5.00
2018-08-28T02:12:41.279Z,5.20
2018-08-28T02:13:41.285Z,5.20
2018-08-28T02:14:41.261Z,5.30
2018-08-28T02:15:41.323Z,4.80
2018-08-28T02:16:41.781Z,5.20
2018-08-28T02:17:41.234Z,5.00
2018-08-28T02:18:41.245Z,5.30
2018-08-28T02:19:41.753Z,5.60
2018-08-28T02:20:41.251Z,5.60
2018-08-28T02:21:41.235Z,5.50
2018-08-28T02:22:41.188Z,5.60
2018-08-28T02:23:41.174Z,5.90
2018-08-28T02:24:41.148Z,5.00
2018-08-28T02:25:41.173Z,4.90
2018-08-28T02:26:41.130Z,5.30
2018-08-28T02:27:41.105Z,5.50
2018-08-28T02:28:41.099Z,5.80
2018-08-28T02:29:41.145Z,5.30
2018-08-28T02:30:41.100Z,5.30
2018-08-28T02:31:41.070Z,5.20
2018-08-28T02:32:41.061Z,5.60
2018-08-28T02:33:41.161Z,5.40
2018-08-28T02:34:41.067Z,5.30
2018-08-28T02:35:41.037Z,5.30
2018-08-28T02:36:41.029Z,5.30
2018-08-28T02:37:41.043Z,5.60
2018-08-28T02:38:40.990Z,5.50
2018-08-28T02:39:41.028Z,6.00
2018-08-28T02:40:40.990Z,5.90
2018-08-28T02:41:40.956Z,5.80
2018-08-28T02:42:40.940Z,6.00
2018-08-28T02:43:40.914Z,5.80
2018-08-28T02:44:40.919Z,5.50
2018-08-28T02:45:40.958Z,6.10
2018-08-28T02:46:40.929Z,6.40
2018-08-28T02:47:40.905Z,6.30
2018-08-28T02:48:40.918Z,5.90
2018-08-28T02:49:40.867Z,5.90
2018-08-28T02:50:40.902Z,5.60
2018-08-28T02:51:40.884Z,6.10
2018-08-28T02:52:40.820Z,5.90
2018-08-28T02:53:40.858Z,6.40
2018-08-28T02:54:40.803Z,6.30
2018-08-28T02:55:40.852Z,6.60
2018-08-28T02:56:40.782Z,6.60
2018-08-28T02:57:40.768Z,6.00
2018-08-28T02:58:40.764Z,6.20
2018-08-28T02:59:40.778Z,5.80
2018-08-28T03:00:40.828Z,5.90
2018-08-28T03:01:40.726Z,6.30
2018-08-28T03:02:40.719Z,6.50
2018-08-28T03:03:40.726Z,6.40
2018-08-28T03:04:40.686Z,6.00
2018-08-28T03:05:40.742Z,6.40
2018-08-28T03:06:40.654Z,6.10
2018-08-28T03:07:40.649Z,6.30
2018-08-28T03:08:40.633Z,6.50
2018-08-28T03:09:40.670Z,6.50
2018-08-28T03:10:40.677Z,5.70
2018-08-28T03:11:40.702Z,6.20
2018-08-28T03:12:40.647Z,6.30
2018-08-28T03:13:40.646Z,6.20
2018-08-28T03:14:40.615Z,6.30
2018-08-28T03:15:40.635Z,6.60
2018-08-28T03:16:40.599Z,6.70
2018-08-28T03:17:40.551Z,6.70
2018-08-28T03:18:40.565Z,7.00
2018-08-28T03:19:40.539Z,6.20
2018-08-28T03:20:40.517Z,7.00
2018-08-28T03:21:40.693Z,7.50
2018-08-28T03:22:40.504Z,6.90
2018-08-28T03:23:40.493Z,7.00
2018-08-28T03:24:40.476Z,7.30
2018-08-28T03:25:40.463Z,7.40
2018-08-28T03:26:40.515Z,7.20
2018-08-28T03:27:40.441Z,7.50
2018-08-28T03:28:40.417Z,6.50
2018-08-28T03:29:40.469Z,6.20
2018-08-28T03:30:40.399Z,6.20
2018-08-28T03:31:40.473Z,6.30
2018-08-28T03:32:40.377Z,6.60
2018-08-28T03:33:40.358Z,6.40
2018-08-28T03:34:40.378Z,6.40
2018-08-28T03:35:40.344Z,6.30
2018-08-28T03:36:40.380Z,7.20
2018-08-28T03:37:40.324Z,6.60
2018-08-28T03:38:40.303Z,6.60
2018-08-28T03:39:40.298Z,6.80
2018-08-28T03:40:40.280Z,6.60
2018-08-28T03:41:40.322Z,6.90
2018-08-28T03:42:40.302Z,7.10
2018-08-28T03:43:40.252Z,6.90
2018-08-28T03:44:40.307Z,6.60
2018-08-28T03:45:40.244Z,6.40
2018-08-28T03:46:40.222Z,7.20
2018-08-28T03:47:40.275Z,7.00
2018-08-28T03:48:40.186Z,7.10
2018-08-28T03:49:40.180Z,7.40
2018-08-28T03:50:40.171Z,7.20
2018-08-28T03:51:40.166Z,6.80
2018-08-28T03:52:40.217Z,7.30
2018-08-28T03:53:40.204Z,7.60
2018-08-28T03:54:40.181Z,7.30
2018-08-28T03:55:40.108Z,7.70
2018-08-28T03:56:40.196Z,7.50
2018-08-28T03:57:40.125Z,7.40
2018-08-28T03:58:40.098Z,7.20
2018-08-28T03:59:40.088Z,7.50
2018-08-28T04:00:40.062Z,7.20
2018-08-28T04:01:40.052Z,7.40
2018-08-28T04:02:40.090Z,7.40
2018-08-28T04:03:40.091Z,7.20
2018-08-28T04:04:40.018Z,7.30
2018-08-28T04:05:40.012Z,7.30
2018-08-28T04:06:39.986Z,7.40
2018-08-28T04:07:40.020Z,7.30
2018-08-28T04:08:40.022Z,7.60
2018-08-28T04:09:39.988Z,7.70
2018-08-28T04:10:39.955Z,7.30
2018-08-28T04:11:39.936Z,8.10
2018-08-28T04:12:39.928Z,7.60
2018-08-28T04:13:39.998Z,7.90
2018-08-28T04:14:39.892Z,7.90
2018-08-28T04:15:39.959Z,7.60
2018-08-28T04:16:39.894Z,7.90
2018-08-28T04:17:39.884Z,8.40
2018-08-28T04:18:39.979Z,8.40
2018-08-28T04:19:39.937Z,8.50
2018-08-28T04:20:39.838Z,8.00
2018-08-28T04:21:39.863Z,8.10
2018-08-28T04:22:39.902Z,8.20
2018-08-28T04:23:39.892Z,8.00
2018-08-28T04:24:39.793Z,8.20
2018-08-28T04:25:39.803Z,8.90
2018-08-28T04:26:39.879Z,8.20
2018-08-28T04:27:39.781Z,8.30
2018-08-28T04:28:39.811Z,8.70
2018-08-28T04:29:39.837Z,8.90
2018-08-28T04:30:39.887Z,8.30
2018-08-28T04:31:39.736Z,8.30
2018-08-28T04:32:39.705Z,8.90
2018-08-28T04:33:39.727Z,9.40
2018-08-28T04:34:39.770Z,8.50
2018-08-28T04:35:39.721Z,9.00
2018-08-28T04:36:39.668Z,8.50
2018-08-28T04:37:39.655Z,8.30
2018-08-28T04:38:39.645Z,9.10
2018-08-28T04:39:39.741Z,8.70
2018-08-28T04:40:39.644Z,8.50
2018-08-28T04:41:39.637Z,8.90
2018-08-28T04:42:39.601Z,8.70
2018-08-28T04:43:39.601Z,9.40
2018-08-28T04:44:39.665Z,9.20
2018-08-28T04:45:39.577Z,8.50
2018-08-28T04:46:39.574Z,9.40
2018-08-28T04:47:39.525Z,8.80
2018-08-28T04:48:39.588Z,8.70
2018-08-28T04:49:39.561Z,8.70
2018-08-28T04:50:39.579Z,8.90
2018-08-28T04:51:39.525Z,9.30
2018-08-28T04:52:39.541Z,8.90
2018-08-28T04:53:39.655Z,9.20
2018-08-28T04:54:39.624Z,9.20
2018-08-28T04:55:39.815Z,9.00
2018-08-28T04:56:39.561Z,8.70
2018-08-28T04:57:39.429Z,9.10
2018-08-28T04:58:39.475Z,8.70
2018-08-28T04:59:39.437Z,8.70
2018-08-28T05:00:39.863Z,8.70
2018-08-28T05:01:39.421Z,8.70
2018-08-28T05:02:39.373Z,8.90
2018-08-28T05:03:39.392Z,9.30
2018-08-28T05:04:39.329Z,9.20
2018-08-28T05:05:39.432Z,9.00
2018-08-28T05:06:39.351Z,9.30
2018-08-28T05:07:39.378Z,8.50
2018-08-28T05:08:39.389Z,9.00
2018-08-28T05:09:39.335Z,10.10
2018-08-28T05:10:39.598Z,9.70
2018-08-28T05:11:40.564Z,9.30
2018-08-28T05:12:39.487Z,9.50
2018-08-28T05:13:39.238Z,10.00
2018-08-28T05:14:40.585Z,10.10
2018-08-28T05:15:39.281Z,9.40
2018-08-28T05:16:39.923Z,9.10
2018-08-28T05:17:39.227Z,9.80
2018-08-28T05:18:39.287Z,9.10
2018-08-28T05:19:39.236Z,9.20
2018-08-28T05:20:39.224Z,8.80
2018-08-28T05:21:39.302Z,9.30
2018-08-28T05:22:39.258Z,9.10
2018-08-28T05:23:39.149Z,9.60
2018-08-28T05:24:39.469Z,9.60
2018-08-28T05:25:39.262Z,9.70
2018-08-28T05:26:39.223Z,9.40
2018-08-28T05:27:39.118Z,10.30
2018-08-28T05:28:39.092Z,9.70
2018-08-28T05:29:39.246Z,9.70
2018-08-28T05:30:39.118Z,9.70
2018-08-28T05:31:39.245Z,9.60
2018-08-28T05:32:39.120Z,9.90
2018-08-28T05:33:39.026Z,9.50
2018-08-28T05:34:39.008Z,9.70
2018-08-28T05:35:38.986Z,9.80
2018-08-28T05:36:38.973Z,9.90
2018-08-28T05:37:39.001Z,9.40
2018-08-28T05:38:38.952Z,9.50
2018-08-28T05:39:38.943Z,9.80
2018-08-28T05:40:38.931Z,9.30
2018-08-28T05:41:38.951Z,9.30
2018-08-28T05:42:38.947Z,9.70
2018-08-28T05:43:38.913Z,9.80
2018-08-28T05:44:38.916Z,10.40
2018-08-28T05:45:38.875Z,9.20
2018-08-28T05:46:38.857Z,9.60
2018-08-28T05:47:38.895Z,9.80
2018-08-28T05:48:38.837Z,9.90
2018-08-28T05:49:38.842Z,9.90
2018-08-28T05:50:38.819Z,10.20
2018-08-28T05:51:38.815Z,9.50
2018-08-28T05:52:38.853Z,9.80
2018-08-28T05:53:38.796Z,9.50
2018-08-28T05:54:38.789Z,9.40
2018-08-28T05:55:38.800Z,8.90
2018-08-28T05:56:38.761Z,9.80
2018-08-28T05:57:38.785Z,9.80
2018-08-28T05:58:38.773Z,9.10
2018-08-28T05:59:38.727Z,9.10
2018-08-28T06:00:38.739Z,9.70
2018-08-28T06:01:38.706Z,9.50
2018-08-28T06:02:38.693Z,8.90
2018-08-28T06:03:38.712Z,9.50
2018-08-28T06:04:38.667Z,9.40
2018-08-28T06:05:38.660Z,9.40
2018-08-28T06:06:38.646Z,9.30
2018-08-28T06:07:38.627Z,9.90
2018-08-28T06:08:38.717Z,9.30
2018-08-28T06:09:38.615Z,9.20
2018-08-28T06:10:38.597Z,9.70
2018-08-28T06:11:38.589Z,9.30
2018-08-28T06:12:38.576Z,9.30
2018-08-28T06:13:38.639Z,9.40
2018-08-28T06:14:38.609Z,9.50
2018-08-28T06:15:38.539Z,9.30
2018-08-28T06:16:38.535Z,9.10
2018-08-28T06:17:38.562Z,9.30
2018-08-28T06:18:38.543Z,8.70
2018-08-28T06:19:38.539Z,8.80
2018-08-28T06:20:38.486Z,9.00
2018-08-28T06:21:38.481Z,8.50
2018-08-28T06:22:38.471Z,8.60
2018-08-28T06:23:38.453Z,8.60
2018-08-28T06:24:38.589Z,8.20
2018-08-28T06:25:38.427Z,7.50
2018-08-28T06:26:38.551Z,7.40
2018-08-28T06:27:38.399Z,7.80
2018-08-28T06:28:38.392Z,7.50
2018-08-28T06:29:38.435Z,7.10
2018-08-28T06:30:38.364Z,7.20
2018-08-28T06:31:38.357Z,6.90
2018-08-28T06:32:38.351Z,7.50
2018-08-28T06:33:38.335Z,7.40
2018-08-28T06:34:38.364Z,7.10
2018-08-28T06:35:38.309Z,6.60
2018-08-28T06:36:38.303Z,6.90
2018-08-28T06:37:38.287Z,6.40
2018-08-28T06:38:38.284Z,6.10
2018-08-28T06:39:38.301Z,6.20
2018-08-28T06:40:38.289Z,6.80
2018-08-28T06:41:38.247Z,6.50
2018-08-28T06:42:38.231Z,6.50
2018-08-28T06:43:38.221Z,6.50
2018-08-28T06:44:38.215Z,6.70
2018-08-28T06:45:38.260Z,6.40
2018-08-28T06:46:38.225Z,6.00
2018-08-28T06:47:38.177Z,6.50
2018-08-28T06:48:38.167Z,6.60
2018-08-28T06:49:38.237Z,6.20
2018-08-28T06:50:38.196Z,6.30
2018-08-28T06:51:38.145Z,6.10
2018-08-28T06:52:38.127Z,6.40
2018-08-28T06:53:38.105Z,5.90
2018-08-28T06:54:38.110Z,6.20
2018-08-28T06:55:38.146Z,6.00
2018-08-28T06:56:38.085Z,6.40
2018-08-28T06:57:38.077Z,6.10
2018-08-28T06:58:38.058Z,6.10
2018-08-28T06:59:38.099Z,6.50
2018-08-28T07:00:38.046Z,6.00
2018-08-28T07:01:38.024Z,5.50
2018-08-28T07:02:38.021Z,5.90
2018-08-28T07:03:38.035Z,6.10
2018-08-28T07:04:38.030Z,5.80
2018-08-28T07:05:37.985Z,5.60
2018-08-28T07:06:37.970Z,5.70
2018-08-28T07:07:37.959Z,5.30
2018-08-28T07:08:37.983Z,5.00
2018-08-28T07:09:37.947Z,5.60
2018-08-28T07:10:37.921Z,5.30
2018-08-28T07:11:37.922Z,5.00
2018-08-28T07:12:37.951Z,5.10
2018-08-28T07:13:37.894Z,4.40
2018-08-28T07:14:37.879Z,4.90
2018-08-28T07:15:37.871Z,4.80
2018-08-28T07:16:37.855Z,4.80
2018-08-28T07:17:37.890Z,5.50
2018-08-28T07:18:37.841Z,5.00
2018-08-28T07:19:37.827Z,4.50
2018-08-28T07:20:37.815Z,4.70
2018-08-28T07:21:37.800Z,4.50
2018-08-28T07:22:37.837Z,4.90
2018-08-28T07:23:37.780Z,4.50
2018-08-28T07:24:37.773Z,4.40
2018-08-28T07:25:37.797Z,4.70
2018-08-28T07:26:37.749Z,4.50
2018-08-28T07:27:37.773Z,4.50
2018-08-28T07:28:37.715Z,4.60
2018-08-28T07:29:37.708Z,4.80
2018-08-28T07:30:37.692Z,4.60
2018-08-28T07:31:37.734Z,4.50
2018-08-28T07:32:37.727Z,4.20
2018-08-28T07:33:37.656Z,4.50
2018-08-28T07:34:37.652Z,4.50
2018-08-28T07:35:37.643Z,4.50
2018-08-28T07:36:37.633Z,4.80
2018-08-28T07:37:37.669Z,4.30
2018-08-28T07:38:37.623Z,4.60
2018-08-28T07:39:37.595Z,4.30
2018-08-28T07:40:37.581Z,4.60
2018-08-28T07:41:37.575Z,4.50
2018-08-28T07:42:37.605Z,4.80
2018-08-28T07:43:37.547Z,4.50
2018-08-28T07:44:37.539Z,4.40
2018-08-28T07:45:37.527Z,5.20
2018-08-28T07:46:37.519Z,4.20
2018-08-28T07:47:37.542Z,4.50
2018-08-28T07:48:37.529Z,4.20
2018-08-28T07:49:37.495Z,4.40
2018-08-28T07:50:37.467Z,4.00
2018-08-28T07:51:37.459Z,4.20
2018-08-28T07:52:37.447Z,3.80
2018-08-28T07:53:37.481Z,4.00
2018-08-28T07:54:37.444Z,3.80
2018-08-28T07:55:37.412Z,4.20
2018-08-28T07:56:37.407Z,3.80
2018-08-28T07:57:37.391Z,3.80
2018-08-28T07:58:37.433Z,4.10
2018-08-28T07:59:37.376Z,4.00
2018-08-28T08:00:37.366Z,4.00
2018-08-28T08:01:37.357Z,3.90
2018-08-28T08:02:37.348Z,3.70
2018-08-28T08:03:37.378Z,3.80
2018-08-28T08:04:37.340Z,3.90
2018-08-28T08:05:37.310Z,3.90
2018-08-28T08:06:37.310Z,3.90
2018-08-28T08:07:37.759Z,3.50
2018-08-28T08:08:37.274Z,3.70
2018-08-28T08:09:37.268Z,3.70
2018-08-28T08:10:37.341Z,3.70
2018-08-28T08:11:37.248Z,4.00
2018-08-28T08:12:37.266Z,3.60
2018-08-28T08:13:37.221Z,3.60
2018-08-28T08:14:37.247Z,3.70
2018-08-28T08:15:37.211Z,3.60
2018-08-28T08:16:37.192Z,3.90
2018-08-28T08:17:37.175Z,3.70
2018-08-28T08:18:37.167Z,3.70
2018-08-28T08:19:37.187Z,3.40
2018-08-28T08:20:37.146Z,3.40
2018-08-28T08:21:37.165Z,3.40
2018-08-28T08:22:37.141Z,3.50
2018-08-28T08:23:37.118Z,3.50
2018-08-28T08:24:37.151Z,3.80
2018-08-28T08:25:37.121Z,3.70
2018-08-28T08:26:37.095Z,3.50
2018-08-28T08:27:37.065Z,3.80
2018-08-28T08:28:37.073Z,3.50
2018-08-28T08:29:37.080Z,3.80
2018-08-28T08:30:37.040Z,3.80
2018-08-28T08:31:37.049Z,3.90
2018-08-28T08:32:37.009Z,3.70
2018-08-28T08:33:36.996Z,3.80
2018-08-28T08:34:36.983Z,3.60
2018-08-28T08:35:36.975Z,3.70
2018-08-28T08:36:37.009Z,3.50
2018-08-28T08:37:36.999Z,3.60
2018-08-28T08:38:36.941Z,3.50
2018-08-28T08:39:36.922Z,4.00
2018-08-28T08:40:36.910Z,3.80
2018-08-28T08:41:36.898Z,5.00
2018-08-28T08:42:36.926Z,4.50
2018-08-28T08:43:36.916Z,5.50
2018-08-28T08:44:36.869Z,3.90
2018-08-28T08:45:36.891Z,3.70
2018-08-28T08:46:36.842Z,3.60
2018-08-28T08:47:36.831Z,3.60
2018-08-28T08:48:36.859Z,3.80
2018-08-28T08:49:36.806Z,3.70
2018-08-28T08:50:36.809Z,3.30
2018-08-28T08:51:36.790Z,3.30
2018-08-28T08:52:36.778Z,3.20
2018-08-28T08:53:36.811Z,3.10
2018-08-28T08:54:36.788Z,3.10
2018-08-28T08:55:36.746Z,3.20
2018-08-28T08:56:36.739Z,3.50
2018-08-28T08:57:36.733Z,3.40
2018-08-28T08:58:36.710Z,3.60
2018-08-28T08:59:36.739Z,3.30
2018-08-28T09:00:36.690Z,3.40
2018-08-28T09:01:36.681Z,3.20
2018-08-28T09:02:36.670Z,3.40
2018-08-28T09:03:36.657Z,3.50
2018-08-28T09:04:36.703Z,3.40
2018-08-28T09:05:36.645Z,3.20
2018-08-28T09:06:36.627Z,3.10
2018-08-28T09:07:36.623Z,3.40
2018-08-28T09:08:36.608Z,3.40
2018-08-28T09:09:36.643Z,2.80
2018-08-28T09:10:36.588Z,4.00
2018-08-28T09:11:36.571Z,3.10
2018-08-28T09:12:36.569Z,3.10
2018-08-28T09:13:36.553Z,3.50
2018-08-28T09:14:36.581Z,3.20
2018-08-28T09:15:36.550Z,3.50
2018-08-28T09:16:36.550Z,3.10
2018-08-28T09:17:36.504Z,3.20
2018-08-28T09:18:36.493Z,3.10
2018-08-28T09:19:36.483Z,3.20
2018-08-28T09:20:36.520Z,3.90
2018-08-28T09:21:36.459Z,2.90
2018-08-28T09:22:36.455Z,3.10
2018-08-28T09:23:36.437Z,3.20
2018-08-28T09:24:36.425Z,3.20
2018-08-28T09:25:36.464Z,3.10
2018-08-28T09:26:36.415Z,2.90
2018-08-28T09:27:36.413Z,2.70
2018-08-28T09:28:36.391Z,2.50
2018-08-28T09:29:36.376Z,3.10
2018-08-28T09:30:36.401Z,2.80
2018-08-28T09:31:36.383Z,2.90
2018-08-28T09:32:36.346Z,3.10
2018-08-28T09:33:36.377Z,3.30
2018-08-28T09:34:36.325Z,2.70
2018-08-28T09:35:36.298Z,3.20
2018-08-28T09:36:36.323Z,2.90
2018-08-28T09:37:36.283Z,3.20
2018-08-28T09:38:36.292Z,3.10
2018-08-28T09:39:36.263Z,2.70
2018-08-28T09:40:36.247Z,2.80
2018-08-28T09:41:36.271Z,3.00
2018-08-28T09:42:36.231Z,2.70
2018-08-28T09:43:36.311Z,2.70
2018-08-28T09:44:36.234Z,2.50
2018-08-28T09:45:36.198Z,2.70
2018-08-28T09:46:36.217Z,2.80
2018-08-28T09:47:36.171Z,2.90
2018-08-28T09:48:36.155Z,2.80
2018-08-28T09:49:36.197Z,2.70
2018-08-28T09:50:36.265Z,3.10
2018-08-28T09:51:36.154Z,2.70
2018-08-28T09:52:36.123Z,2.90
2018-08-28T09:53:36.153Z,2.80
2018-08-28T09:54:36.144Z,2.90
2018-08-28T09:55:36.088Z,2.60
2018-08-28T09:56:36.127Z,2.90
2018-08-28T09:57:36.072Z,2.50
2018-08-28T09:58:36.094Z,2.90
2018-08-28T09:59:36.053Z,2.70
2018-08-28T10:00:36.037Z,3.00
2018-08-28T10:01:36.037Z,2.80
2018-08-28T10:02:36.018Z,2.90
2018-08-28T10:03:36.052Z,2.90
2018-08-28T10:04:36.013Z,2.60
2018-08-28T10:05:36.013Z,3.00
2018-08-28T10:06:35.980Z,2.60
2018-08-28T10:07:35.953Z,2.90
2018-08-28T10:08:35.989Z,3.00
2018-08-28T10:09:35.935Z,2.50
2018-08-28T10:10:35.922Z,2.70
2018-08-28T10:11:35.911Z,2.60
2018-08-28T10:12:35.901Z,3.00
2018-08-28T10:13:35.929Z,2.60
2018-08-28T10:14:35.921Z,2.70
2018-08-28T10:15:35.864Z,2.70
2018-08-28T10:16:35.858Z,3.10
2018-08-28T10:17:35.851Z,2.80
2018-08-28T10:18:35.845Z,2.90
2018-08-28T10:19:35.885Z,2.60
2018-08-28T10:20:35.815Z,2.70
2018-08-28T10:21:35.808Z,3.00
2018-08-28T10:22:35.800Z,2.90
2018-08-28T10:23:35.790Z,2.80
2018-08-28T10:24:35.824Z,3.00
2018-08-28T10:25:35.812Z,3.30
2018-08-28T10:26:35.762Z,3.10
2018-08-28T10:27:35.741Z,3.40
2018-08-28T10:28:35.735Z,3.00
2018-08-28T10:29:35.729Z,2.50
2018-08-28T10:30:35.748Z,2.50
2018-08-28T10:31:35.705Z,3.10
2018-08-28T10:32:35.688Z,2.70
2018-08-28T10:33:35.714Z,2.80
2018-08-28T10:34:35.677Z,2.90
2018-08-28T10:35:35.659Z,2.70
2018-08-28T10:36:35.651Z,2.70
2018-08-28T10:37:35.641Z,2.90
2018-08-28T10:38:35.684Z,2.80
2018-08-28T10:39:35.628Z,2.50
2018-08-28T10:40:35.621Z,2.80
2018-08-28T10:41:35.618Z,2.60
2018-08-28T10:42:35.630Z,3.20
2018-08-28T10:43:35.628Z,2.80
2018-08-28T10:44:35.592Z,3.00
2018-08-28T10:45:35.564Z,2.70
2018-08-28T10:46:35.601Z,2.80
2018-08-28T10:47:35.547Z,3.20
2018-08-28T10:48:35.570Z,2.70
2018-08-28T10:49:35.527Z,3.00
2018-08-28T10:50:35.521Z,2.80
2018-08-28T10:51:35.507Z,2.90
2018-08-28T10:52:35.490Z,2.60
2018-08-28T10:53:35.522Z,2.50
2018-08-28T10:54:35.479Z,2.40
2018-08-28T10:55:35.465Z,2.40
2018-08-28T10:56:35.455Z,2.60
2018-08-28T10:57:35.434Z,2.30
2018-08-28T10:58:35.468Z,2.30
2018-08-28T10:59:35.418Z,2.30
2018-08-28T11:00:35.448Z,2.50
2018-08-28T11:01:35.404Z,2.00
2018-08-28T11:02:35.390Z,2.50
2018-08-28T11:03:35.377Z,2.60
2018-08-28T11:04:35.457Z,2.30
2018-08-28T11:05:35.396Z,2.30
2018-08-28T11:06:35.347Z,2.70
2018-08-28T11:07:35.343Z,2.70
2018-08-28T11:08:35.392Z,2.40
2018-08-28T11:09:35.317Z,2.50
2018-08-28T11:10:35.309Z,2.40
2018-08-28T11:11:35.293Z,2.20
2018-08-28T11:12:35.279Z,2.30
2018-08-28T11:13:35.300Z,2.40
2018-08-28T11:14:35.259Z,2.50
2018-08-28T11:15:35.252Z,2.30
2018-08-28T11:16:35.231Z,2.60
2018-08-28T11:17:35.229Z,2.20
2018-08-28T11:18:35.256Z,2.40
2018-08-28T11:19:35.246Z,2.90
2018-08-28T11:20:35.197Z,2.50
2018-08-28T11:21:35.199Z,2.30
2018-08-28T11:22:35.185Z,2.60
2018-08-28T11:23:35.163Z,2.80
2018-08-28T11:24:35.193Z,2.30
2018-08-28T11:25:35.137Z,2.30
2018-08-28T11:26:35.135Z,2.50
2018-08-28T11:27:35.135Z,2.20
2018-08-28T11:28:35.104Z,3.10
2018-08-28T11:29:35.136Z,2.40
2018-08-28T11:30:35.137Z,2.20
2018-08-28T11:31:35.081Z,2.40
2018-08-28T11:32:35.089Z,2.50
2018-08-28T11:33:35.065Z,2.30
2018-08-28T11:34:35.062Z,2.70
2018-08-28T11:35:35.098Z,2.30
2018-08-28T11:36:35.041Z,2.60
2018-08-28T11:37:35.019Z,2.50
2018-08-28T11:38:35.135Z,2.50
2018-08-28T11:39:35.004Z,2.50
2018-08-28T11:40:35.021Z,2.50
2018-08-28T11:41:34.979Z,2.50
2018-08-28T11:42:34.963Z,2.50
2018-08-28T11:43:34.974Z,2.60
2018-08-28T11:44:34.960Z,2.50
2018-08-28T11:45:34.981Z,2.60
2018-08-28T11:46:34.939Z,2.50
2018-08-28T11:47:34.924Z,2.40
2018-08-28T11:48:34.918Z,2.40
2018-08-28T11:49:34.905Z,2.40
2018-08-28T11:50:34.940Z,2.60
2018-08-28T11:51:34.888Z,2.40
2018-08-28T11:52:34.956Z,2.60
2018-08-28T11:53:34.858Z,2.80
2018-08-28T11:54:34.853Z,2.40
2018-08-28T11:55:34.886Z,2.50
2018-08-28T11:56:34.832Z,2.40
2018-08-28T11:57:34.816Z,2.60
2018-08-28T11:58:34.820Z,2.60
2018-08-28T11:59:34.793Z,2.30
2018-08-28T12:00:34.823Z,2.50
2018-08-28T12:01:34.768Z,2.70
2018-08-28T12:02:34.757Z,2.60
2018-08-28T12:03:34.749Z,2.20
2018-08-28T12:04:34.749Z,2.20
2018-08-28T12:05:34.765Z,2.10
2018-08-28T12:06:34.790Z,2.30
2018-08-28T12:07:34.709Z,2.30
2018-08-28T12:08:34.690Z,2.40
2018-08-28T12:09:34.689Z,2.60
2018-08-28T12:10:34.676Z,2.30
2018-08-28T12:11:34.705Z,2.30
2018-08-28T12:12:34.651Z,2.40
2018-08-28T12:13:34.643Z,2.40
2018-08-28T12:14:34.641Z,2.50
2018-08-28T12:15:34.630Z,2.70
2018-08-28T12:16:34.666Z,2.30
2018-08-28T12:17:34.640Z,2.40
2018-08-28T12:18:34.602Z,2.20
2018-08-28T12:19:34.615Z,2.60
2018-08-28T12:20:34.668Z,2.90
2018-08-28T12:21:34.566Z,2.40
2018-08-28T12:22:34.588Z,2.70
2018-08-28T12:23:34.546Z,2.40
2018-08-28T12:24:34.532Z,2.60
2018-08-28T12:25:34.517Z,2.20
2018-08-28T12:26:34.516Z,2.40
2018-08-28T12:27:34.537Z,2.50
2018-08-28T12:28:34.492Z,2.50
2018-08-28T12:29:34.512Z,2.30
2018-08-28T12:30:34.472Z,2.50
2018-08-28T12:31:34.452Z,2.40
2018-08-28T12:32:34.484Z,2.80
2018-08-28T12:33:34.472Z,3.00
2018-08-28T12:34:34.419Z,2.50
2018-08-28T12:35:34.419Z,4.30
2018-08-28T12:36:34.434Z,4.30
2018-08-28T12:37:34.424Z,4.20
2018-08-28T12:38:34.425Z,3.40
2018-08-28T12:39:34.386Z,2.70
2018-08-28T12:40:34.355Z,2.30
2018-08-28T12:41:34.341Z,2.60
2018-08-28T12:42:34.387Z,2.80
2018-08-28T12:43:34.326Z,2.30
2018-08-28T12:44:34.312Z,2.60
2018-08-28T12:45:34.305Z,2.30
2018-08-28T12:46:34.289Z,2.70
2018-08-28T12:47:34.334Z,2.70
2018-08-28T12:48:34.260Z,2.40
2018-08-28T12:49:34.292Z,2.90
2018-08-28T12:50:34.240Z,2.30
2018-08-28T12:51:34.225Z,2.50
2018-08-28T12:52:34.208Z,3.10
2018-08-28T12:53:34.282Z,3.20
2018-08-28T12:54:34.190Z,2.60
2018-08-28T12:55:34.195Z,2.60
2018-08-28T12:56:34.168Z,2.60
2018-08-28T12:57:34.154Z,2.60
2018-08-28T12:58:34.179Z,2.90
2018-08-28T12:59:34.134Z,2.90
2018-08-28T13:00:34.279Z,2.50
2018-08-28T13:01:34.111Z,2.90
2018-08-28T13:02:34.252Z,2.70
2018-08-28T13:03:34.087Z,3.40
2018-08-28T13:04:34.115Z,3.10
2018-08-28T13:05:34.106Z,2.90
2018-08-28T13:06:34.086Z,2.90
2018-08-28T13:07:34.308Z,2.70
2018-08-28T13:08:34.038Z,2.80
2018-08-28T13:09:34.071Z,2.60
2018-08-28T13:10:34.013Z,2.90
2018-08-28T13:11:34.005Z,2.80
2018-08-28T13:12:33.988Z,3.10
2018-08-28T13:13:33.986Z,2.70
2018-08-28T13:14:34.050Z,2.90
2018-08-28T13:15:33.961Z,2.60
2018-08-28T13:16:34.013Z,2.60
2018-08-28T13:17:33.956Z,2.60
2018-08-28T13:18:33.932Z,2.60